Terminal Aerodrome Forecast
Issued by NWS

Home | Current Version | Previous Version | Text Only | Print | Product List | Glossary On
Versions: 1 2 3 4 5 6 7 8 9 10 11 12 13 14 15 16 17 18 19 20 21 22 23 24 25 26 27 28 29 30 31
000
FTUS45 KGJT 022339
TAFTEX
TAF
KTEX 022339Z 0300/0324 11007KT P6SM VCSH BKN050 OVC060
      TEMPO 0300/0302 VRB10G20KT -SHRA BKN030
     FM030200 12004KT P6SM -SHRA SCT030 OVC050
     FM030800 VRB04KT P6SM VCSH SCT020 OVC040
     FM031400 VRB03KT P6SM SCT030 BKN060
     FM031600 24006KT P6SM VCTS SCT050CB BKN080=

USA.gov is the U.S. government's official web portal to all federal, state and local government web resources and services.